createdAt,value
2023-03-27T00:00:38.492Z,38.7008
2023-03-27T00:01:40.105Z,38.6431
2023-03-27T00:02:41.958Z,38.6785
2023-03-27T00:03:43.525Z,38.7515
2023-03-27T00:04:45.062Z,38.8223
2023-03-27T00:05:46.733Z,38.7408
2023-03-27T00:06:48.357Z,38.8169
2023-03-27T00:07:50.016Z,38.8215
2023-03-27T00:08:51.657Z,38.8808
2023-03-27T00:09:53.327Z,38.9308
2023-03-27T00:10:55.178Z,38.8462
2023-03-27T00:11:56.617Z,38.8646
2023-03-27T00:12:58.255Z,38.9346
2023-03-27T00:13:59.926Z,38.9146
2023-03-27T00:15:01.537Z,38.9715
2023-03-27T00:16:03.254Z,38.9977
2023-03-27T00:17:04.883Z,39.0385
2023-03-27T00:18:06.552Z,39.0385
2023-03-27T00:19:08.150Z,39.0462
2023-03-27T00:20:09.833Z,39.0554
2023-03-27T00:21:11.513Z,39.0923
2023-03-27T00:22:13.129Z,39.1885
2023-03-27T00:23:14.767Z,39.1523
2023-03-27T00:24:16.435Z,39.2331
2023-03-27T00:25:18.063Z,39.2069
2023-03-27T00:26:19.758Z,39.1438
2023-03-27T00:27:21.371Z,39.1823
2023-03-27T00:28:23.030Z,39.2238
2023-03-27T00:29:24.672Z,39.1438
2023-03-27T00:30:26.325Z,39.1754
2023-03-27T00:31:28.079Z,39.0954
2023-03-27T00:32:29.653Z,39.1338
2023-03-27T00:33:31.300Z,39.1523
2023-03-27T00:34:32.924Z,39.2354
2023-03-27T00:35:34.672Z,39.2969
2023-03-27T00:36:36.248Z,39.2900
2023-03-27T00:37:37.897Z,39.2977
2023-03-27T00:38:39.740Z,39.2338
2023-03-27T00:39:41.222Z,39.2508
2023-03-27T00:40:42.855Z,39.2992
2023-03-27T00:41:44.531Z,39.3038
2023-03-27T00:42:46.152Z,39.3123
2023-03-27T00:43:47.816Z,39.3154
2023-03-27T00:44:49.442Z,39.3623
2023-03-27T00:45:51.126Z,39.3177
2023-03-27T00:46:52.803Z,39.3754
2023-03-27T00:47:54.428Z,39.3177
2023-03-27T00:48:56.047Z,39.4054
2023-03-27T00:49:57.728Z,39.3469
2023-03-27T00:50:59.356Z,39.3677
2023-03-27T00:52:01.058Z,39.3154
2023-03-27T00:53:02.657Z,39.3538
2023-03-27T00:54:04.329Z,39.3646
2023-03-27T00:55:05.985Z,39.3500
2023-03-27T00:56:07.650Z,39.4362
2023-03-27T00:57:09.333Z,39.3331
2023-03-27T00:58:10.946Z,39.3423
2023-03-27T00:59:12.606Z,39.3292
2023-03-27T01:00:14.282Z,39.3438
2023-03-27T01:01:15.904Z,39.3723
2023-03-27T01:02:17.596Z,39.2908
2023-03-27T01:03:19.275Z,39.3831
2023-03-27T01:04:20.849Z,39.4138
2023-03-27T01:05:22.487Z,39.3985
2023-03-27T01:06:24.149Z,39.3808
2023-03-27T01:07:25.788Z,39.4046
2023-03-27T01:08:27.451Z,39.3677
2023-03-27T01:09:29.084Z,39.3777
2023-03-27T01:10:30.753Z,39.3669
2023-03-27T01:11:32.386Z,39.3669
2023-03-27T01:12:34.069Z,39.3385
2023-03-27T01:13:35.693Z,39.3469
2023-03-27T01:14:37.362Z,39.3369
2023-03-27T01:15:39.013Z,39.3369
2023-03-27T01:16:40.663Z,39.3492
2023-03-27T01:17:42.358Z,39.3869
2023-03-27T01:18:43.946Z,39.3485
2023-03-27T01:19:45.594Z,39.2846
2023-03-27T01:20:47.345Z,39.3708
2023-03-27T01:21:48.904Z,39.3277
2023-03-27T01:22:50.599Z,39.3600
2023-03-27T01:23:59.354Z,39.3277
2023-03-27T01:24:53.889Z,39.3500
2023-03-27T01:25:55.500Z,39.3138
2023-03-27T01:26:57.168Z,39.3231
2023-03-27T01:27:58.832Z,39.2692
2023-03-27T01:29:00.477Z,39.3085
2023-03-27T01:30:02.109Z,39.3477
2023-03-27T01:31:03.798Z,39.3723
2023-03-27T01:32:05.414Z,39.3415
2023-03-27T01:33:07.174Z,39.3769
2023-03-27T01:34:08.718Z,39.3346
2023-03-27T01:35:10.398Z,39.3208
2023-03-27T01:36:12.042Z,39.3946
2023-03-27T01:37:13.706Z,39.3877
2023-03-27T01:38:15.355Z,39.4815
2023-03-27T01:39:17.013Z,39.3646
2023-03-27T01:40:18.639Z,39.4108
2023-03-27T01:41:20.316Z,39.3800
2023-03-27T01:42:21.948Z,39.3462
2023-03-27T01:43:23.647Z,39.3377
2023-03-27T01:44:25.247Z,39.2946
2023-03-27T01:45:26.919Z,39.3308
2023-03-27T01:46:28.587Z,39.3292
2023-03-27T01:47:30.237Z,39.3215
2023-03-27T01:48:31.929Z,39.3862
2023-03-27T01:49:33.531Z,39.3831
2023-03-27T01:50:35.152Z,39.3731
2023-03-27T01:51:36.839Z,39.3931
2023-03-27T01:52:38.488Z,39.3854
2023-03-27T01:53:40.294Z,39.3492
2023-03-27T01:54:41.782Z,39.3708
2023-03-27T01:55:43.441Z,39.3608
2023-03-27T01:56:45.091Z,39.3215
2023-03-27T01:57:48.961Z,39.3123
2023-03-27T01:58:48.405Z,39.3462
2023-03-27T01:59:50.061Z,39.2692
2023-03-27T02:01:04.110Z,39.2885
2023-03-27T02:01:53.357Z,39.3731
2023-03-27T02:02:55.009Z,39.3669
2023-03-27T02:03:56.701Z,39.3262
2023-03-27T02:04:58.322Z,39.3977
2023-03-27T02:05:59.962Z,39.3854
2023-03-27T02:07:01.597Z,39.3808
2023-03-27T02:08:03.282Z,39.3662
2023-03-27T02:09:04.911Z,39.3792
2023-03-27T02:10:06.581Z,39.3708
2023-03-27T02:11:08.284Z,39.3892
2023-03-27T02:12:09.946Z,39.4400
2023-03-27T02:13:11.584Z,39.4362
2023-03-27T02:14:13.278Z,39.3669
2023-03-27T02:15:23.659Z,39.3823
2023-03-27T02:16:16.641Z,39.3546
2023-03-27T02:17:18.201Z,39.3700
2023-03-27T02:18:19.881Z,39.4254
2023-03-27T02:19:21.537Z,39.3262
2023-03-27T02:20:23.186Z,39.3831
2023-03-27T02:21:24.846Z,39.3431
2023-03-27T02:22:38.137Z,39.3077
2023-03-27T02:23:28.132Z,39.3769
2023-03-27T02:24:29.867Z,39.4438
2023-03-27T02:25:31.457Z,39.4162
2023-03-27T02:26:33.125Z,39.3923
2023-03-27T02:27:34.743Z,39.4538
2023-03-27T02:28:36.415Z,39.3854
2023-03-27T02:29:38.080Z,39.3523
2023-03-27T02:30:39.735Z,39.4069
2023-03-27T02:31:41.430Z,39.4085
2023-03-27T02:32:43.163Z,39.4177
2023-03-27T02:33:44.681Z,39.4300
2023-03-27T02:34:46.338Z,39.4554
2023-03-27T02:35:48.022Z,39.4338
2023-03-27T02:36:49.646Z,39.3985
2023-03-27T02:37:51.314Z,39.3846
2023-03-27T02:38:52.950Z,39.4585
2023-03-27T02:39:54.638Z,39.4423
2023-03-27T02:40:56.396Z,39.4692
2023-03-27T02:41:57.911Z,39.4423
2023-03-27T02:42:59.577Z,39.4262
2023-03-27T02:44:01.233Z,39.4546
2023-03-27T02:45:02.891Z,39.4838
2023-03-27T02:46:04.625Z,39.4469
2023-03-27T02:47:06.181Z,39.4800
2023-03-27T02:48:07.900Z,39.4931
2023-03-27T02:49:09.484Z,39.4231
2023-03-27T02:50:11.227Z,39.4262
2023-03-27T02:51:12.803Z,39.4123
2023-03-27T02:52:14.464Z,39.4623
2023-03-27T02:53:16.104Z,39.4854
2023-03-27T02:54:17.766Z,39.4215
2023-03-27T02:55:19.426Z,39.4600
2023-03-27T02:56:21.097Z,39.4692
2023-03-27T02:57:24.967Z,39.4738
2023-03-27T02:58:24.391Z,39.4762
2023-03-27T02:59:26.016Z,39.4792
2023-03-27T03:00:27.712Z,39.4938
2023-03-27T03:01:29.365Z,39.5431
2023-03-27T03:02:31.065Z,39.4815
2023-03-27T03:03:32.646Z,39.4638
2023-03-27T03:04:34.307Z,39.5123
2023-03-27T03:05:35.961Z,39.4631
2023-03-27T03:06:37.608Z,39.4862
2023-03-27T03:07:39.248Z,39.5454
2023-03-27T03:08:40.919Z,39.5169
2023-03-27T03:09:42.555Z,39.4692
2023-03-27T03:10:44.241Z,39.5531
2023-03-27T03:11:45.849Z,39.6123
2023-03-27T03:12:47.515Z,39.5000
2023-03-27T03:13:49.147Z,39.4946
2023-03-27T03:14:50.831Z,39.5585
2023-03-27T03:15:52.507Z,39.5623
2023-03-27T03:16:54.177Z,39.5554
2023-03-27T03:17:55.780Z,39.5915
2023-03-27T03:18:57.451Z,39.5538
2023-03-27T03:19:59.069Z,39.6200
2023-03-27T03:21:00.782Z,39.5654
2023-03-27T03:22:02.386Z,39.6115
2023-03-27T03:23:04.056Z,39.5731
2023-03-27T03:24:05.696Z,39.5908
2023-03-27T03:25:07.370Z,39.6185
2023-03-27T03:26:09.022Z,39.6708
2023-03-27T03:27:10.693Z,39.6408
2023-03-27T03:28:12.303Z,39.6477
2023-03-27T03:29:13.972Z,39.6531
2023-03-27T03:30:16.985Z,39.6969
2023-03-27T03:31:17.362Z,39.6277
2023-03-27T03:32:18.916Z,39.6677
2023-03-27T03:33:20.582Z,39.6431
2023-03-27T03:34:22.203Z,39.6650
2023-03-27T03:35:23.898Z,39.6477
2023-03-27T03:36:25.526Z,39.6723
2023-03-27T03:37:27.178Z,39.6762
2023-03-27T03:38:28.815Z,39.6754
2023-03-27T03:39:30.490Z,39.6254
2023-03-27T03:40:32.112Z,39.6485
2023-03-27T03:41:33.804Z,39.7077
2023-03-27T03:42:35.422Z,39.7231
2023-03-27T03:43:37.086Z,39.7023
2023-03-27T03:44:38.741Z,39.7308
2023-03-27T03:45:40.395Z,39.7131
2023-03-27T03:46:42.041Z,39.7015
2023-03-27T03:47:43.725Z,39.6615
2023-03-27T03:48:45.317Z,39.6308
2023-03-27T03:49:46.993Z,39.7046
2023-03-27T03:50:48.623Z,39.7146
2023-03-27T03:52:03.775Z,39.7292
2023-03-27T03:52:51.921Z,39.6815
2023-03-27T03:53:53.586Z,39.7523
2023-03-27T03:54:55.239Z,39.7085
2023-03-27T03:55:56.883Z,39.7500
2023-03-27T03:56:58.557Z,39.7154
2023-03-27T03:58:00.192Z,39.7415
2023-03-27T03:59:01.846Z,39.7985
2023-03-27T04:00:03.504Z,39.8192
2023-03-27T04:01:05.126Z,39.7085
2023-03-27T04:02:06.837Z,39.7054
2023-03-27T04:03:08.640Z,39.7223
2023-03-27T04:04:10.104Z,39.7292
2023-03-27T04:05:11.745Z,39.7077
2023-03-27T04:06:13.419Z,39.6969
2023-03-27T04:07:15.060Z,39.7323
2023-03-27T04:08:16.715Z,39.8215
2023-03-27T04:09:18.341Z,39.7477
2023-03-27T04:10:20.048Z,39.8015
2023-03-27T04:11:21.660Z,39.8108
2023-03-27T04:12:23.353Z,39.7946
2023-03-27T04:13:24.987Z,39.7885
2023-03-27T04:14:26.622Z,39.7708
2023-03-27T04:15:28.266Z,39.7646
2023-03-27T04:16:29.994Z,39.7885
2023-03-27T04:17:31.622Z,39.7815
2023-03-27T04:18:33.367Z,39.7600
2023-03-27T04:19:34.888Z,39.7223
2023-03-27T04:20:36.537Z,39.8108
2023-03-27T04:21:38.158Z,39.7777
2023-03-27T04:22:39.847Z,39.9208
2023-03-27T04:23:41.463Z,40.4838
2023-03-27T04:24:43.140Z,40.7115
2023-03-27T04:25:44.810Z,40.6423
2023-03-27T04:26:46.441Z,40.2885
2023-03-27T04:27:48.088Z,40.8723
2023-03-27T04:28:49.730Z,42.0392
2023-03-27T04:29:51.369Z,41.7538
2023-03-27T04:30:53.038Z,41.3277
2023-03-27T04:31:54.681Z,41.3423
2023-03-27T04:32:56.389Z,41.7892
2023-03-27T04:33:57.977Z,40.9792
2023-03-27T04:34:59.651Z,41.2592
2023-03-27T04:36:06.360Z,42.0315
2023-03-27T04:37:02.958Z,37.0238
2023-03-27T04:38:04.616Z,36.4915
2023-03-27T04:39:06.260Z,37.8608
2023-03-27T04:40:07.892Z,39.3185
2023-03-27T04:41:09.545Z,37.9954
2023-03-27T04:42:11.178Z,38.5000
2023-03-27T04:43:12.887Z,40.2069
2023-03-27T04:44:14.493Z,39.8062
2023-03-27T04:45:16.190Z,41.0892
2023-03-27T04:46:17.825Z,40.1277
2023-03-27T04:47:19.476Z,41.7431
2023-03-27T04:48:21.140Z,42.1462
2023-03-27T04:49:22.780Z,41.4300
2023-03-27T04:50:24.403Z,41.7862
2023-03-27T04:51:26.089Z,41.3631
2023-03-27T04:52:27.725Z,40.1154
2023-03-27T04:53:29.556Z,38.7223
2023-03-27T04:54:31.055Z,39.3931
2023-03-27T04:55:32.680Z,39.8554
2023-03-27T04:56:34.363Z,39.8300
2023-03-27T04:57:35.987Z,38.3062
2023-03-27T04:58:37.945Z,37.7192
2023-03-27T04:59:39.301Z,37.8377
2023-03-27T05:00:40.987Z,38.5831
2023-03-27T05:01:42.606Z,36.2962
2023-03-27T05:02:44.270Z,36.2446
2023-03-27T05:03:45.976Z,36.9669
2023-03-27T05:04:47.551Z,36.7238
2023-03-27T05:05:49.190Z,36.1731
2023-03-27T05:06:50.872Z,36.4908
2023-03-27T05:07:52.580Z,36.7554
2023-03-27T05:08:54.177Z,36.8508
2023-03-27T05:09:55.777Z,36.9700
2023-03-27T05:10:57.712Z,37.2315
2023-03-27T05:11:59.098Z,37.4962
2023-03-27T05:13:00.769Z,38.0085
2023-03-27T05:14:02.426Z,38.4123
2023-03-27T05:15:04.089Z,38.9723
2023-03-27T05:16:05.720Z,39.0277
2023-03-27T05:17:07.374Z,38.7877
2023-03-27T05:18:09.322Z,38.9992
2023-03-27T05:19:10.767Z,39.3000
2023-03-27T05:20:12.319Z,39.1077
2023-03-27T05:21:13.974Z,38.7392
2023-03-27T05:22:15.626Z,39.0169
2023-03-27T05:23:17.288Z,39.0438
2023-03-27T05:24:18.931Z,39.4692
2023-03-27T05:25:20.586Z,39.4069
2023-03-27T05:26:22.215Z,40.2577
2023-03-27T05:27:23.923Z,40.6077
2023-03-27T05:28:25.525Z,40.5846
2023-03-27T05:29:27.232Z,40.4231
2023-03-27T05:30:28.927Z,40.2623
2023-03-27T05:31:30.573Z,40.5046
2023-03-27T05:32:32.170Z,40.3654
2023-03-27T05:33:33.785Z,40.2777
2023-03-27T05:34:35.496Z,40.3385
2023-03-27T05:35:37.125Z,40.5392
2023-03-27T05:36:38.773Z,41.7908
2023-03-27T05:37:40.405Z,41.2215
2023-03-27T05:38:42.064Z,41.5331
2023-03-27T05:39:43.732Z,41.8823
2023-03-27T05:40:45.374Z,41.7592
2023-03-27T05:41:47.005Z,41.0631
2023-03-27T05:42:48.674Z,40.7346
2023-03-27T05:43:51.241Z,40.8608
2023-03-27T05:44:51.996Z,40.9062
2023-03-27T05:45:53.626Z,40.7146
2023-03-27T05:46:55.291Z,40.7631
2023-03-27T05:47:56.991Z,40.7146
2023-03-27T05:48:58.592Z,41.0000
2023-03-27T05:50:00.249Z,40.6977
2023-03-27T05:51:01.903Z,40.9969
2023-03-27T05:52:03.510Z,41.1462
2023-03-27T05:53:05.200Z,40.8262
2023-03-27T05:54:06.809Z,40.8838
2023-03-27T05:55:08.523Z,41.0262
2023-03-27T05:56:10.116Z,40.8631
2023-03-27T05:57:11.914Z,41.2331
2023-03-27T05:58:13.462Z,40.7408
2023-03-27T05:59:15.077Z,41.1577
2023-03-27T06:00:16.762Z,41.0462
2023-03-27T06:01:18.388Z,41.0092
2023-03-27T06:02:21.517Z,41.3092
2023-03-27T06:03:21.876Z,41.3054
2023-03-27T06:04:23.358Z,41.1762
2023-03-27T06:05:25.023Z,41.2185
2023-03-27T06:06:26.637Z,41.1908
2023-03-27T06:07:28.305Z,41.3477
2023-03-27T06:08:29.933Z,41.4631
2023-03-27T06:09:31.583Z,41.2677
2023-03-27T06:10:33.250Z,41.2731
2023-03-27T06:11:34.889Z,41.2154
2023-03-27T06:12:36.526Z,41.2115
2023-03-27T06:13:38.260Z,41.2592
2023-03-27T06:14:39.906Z,41.0900
2023-03-27T06:15:41.635Z,41.0292
2023-03-27T06:16:43.201Z,41.0354
2023-03-27T06:17:44.894Z,41.1723
2023-03-27T06:18:46.498Z,41.1500
2023-03-27T06:19:48.184Z,41.1385
2023-03-27T06:20:49.815Z,41.1492
2023-03-27T06:21:51.460Z,41.1992
2023-03-27T06:22:53.104Z,41.2023
2023-03-27T06:23:54.763Z,41.2238
2023-03-27T06:24:56.389Z,41.3177
2023-03-27T06:25:58.378Z,41.3131
2023-03-27T06:26:59.691Z,41.2408
2023-03-27T06:28:01.364Z,41.0369
2023-03-27T06:29:08.142Z,41.1023
2023-03-27T06:30:04.676Z,41.1323
2023-03-27T06:31:06.355Z,41.0215
2023-03-27T06:32:07.981Z,41.0823
2023-03-27T06:33:09.621Z,41.2331
2023-03-27T06:34:11.284Z,41.1192
2023-03-27T06:35:12.896Z,41.0346
2023-03-27T06:36:14.625Z,41.1638
2023-03-27T06:37:16.181Z,41.2315
2023-03-27T06:38:17.862Z,41.1685
2023-03-27T06:39:19.479Z,41.0946
2023-03-27T06:40:21.139Z,41.0777
2023-03-27T06:41:22.802Z,41.1592
2023-03-27T06:42:24.445Z,41.0485
2023-03-27T06:43:26.075Z,40.9738
2023-03-27T06:44:27.738Z,40.8777
2023-03-27T06:45:29.393Z,40.8731
2023-03-27T06:46:42.688Z,40.8938
2023-03-27T06:47:36.382Z,40.9946
2023-03-27T06:48:34.366Z,40.9362
2023-03-27T06:49:35.975Z,40.8885
2023-03-27T06:50:37.629Z,41.0723
2023-03-27T06:51:39.281Z,41.0177
2023-03-27T06:52:40.928Z,40.9531
2023-03-27T06:53:42.558Z,40.8846
2023-03-27T06:54:44.216Z,40.8862
2023-03-27T06:55:45.868Z,41.1846
2023-03-27T06:56:47.610Z,41.1346
2023-03-27T06:57:49.166Z,41.1777
2023-03-27T06:58:50.836Z,41.0662
2023-03-27T06:59:52.488Z,41.1062
2023-03-27T07:00:54.129Z,41.1008
2023-03-27T07:01:55.830Z,40.9177
2023-03-27T07:02:57.420Z,41.0792
2023-03-27T07:03:59.065Z,40.9638
2023-03-27T07:05:04.649Z,41.0731
2023-03-27T07:06:02.556Z,40.9085
2023-03-27T07:07:04.049Z,41.0138
2023-03-27T07:08:18.997Z,40.8831
2023-03-27T07:09:07.318Z,40.8846
2023-03-27T07:10:08.962Z,40.9123
2023-03-27T07:11:12.266Z,40.9577
2023-03-27T07:12:12.278Z,40.9492
2023-03-27T07:13:13.919Z,40.9092
2023-03-27T07:14:15.589Z,40.8838
2023-03-27T07:15:17.295Z,40.9654
2023-03-27T07:16:18.892Z,40.8769
2023-03-27T07:17:20.532Z,40.9369
2023-03-27T07:18:22.216Z,40.9646
2023-03-27T07:19:23.822Z,40.9638
2023-03-27T07:20:25.473Z,40.9138
2023-03-27T07:21:27.137Z,40.8454
2023-03-27T07:22:28.799Z,40.9823
2023-03-27T07:23:30.435Z,41.0169
2023-03-27T07:24:32.060Z,40.8462
2023-03-27T07:25:33.744Z,40.8308
2023-03-27T07:26:35.354Z,40.9723
2023-03-27T07:27:37.063Z,41.0015
2023-03-27T07:28:38.729Z,40.9431
2023-03-27T07:29:40.337Z,40.8846
2023-03-27T07:30:41.983Z,40.8500
2023-03-27T07:31:57.525Z,40.8223
2023-03-27T07:32:45.408Z,40.8323
2023-03-27T07:33:47.068Z,40.8723
2023-03-27T07:34:48.579Z,40.8838
2023-03-27T07:35:50.256Z,40.9385
2023-03-27T07:36:51.894Z,40.9415
2023-03-27T07:37:53.579Z,40.9169
2023-03-27T07:38:55.184Z,40.8615
2023-03-27T07:39:56.847Z,40.8708
2023-03-27T07:40:58.504Z,40.8885
2023-03-27T07:42:00.164Z,40.8738
2023-03-27T07:43:01.834Z,40.8938
2023-03-27T07:44:03.464Z,40.9423
2023-03-27T07:45:05.090Z,41.1077
2023-03-27T07:46:06.803Z,40.8708
2023-03-27T07:47:08.397Z,40.8115
2023-03-27T07:48:10.087Z,40.8323
2023-03-27T07:49:11.685Z,40.8315
2023-03-27T07:50:13.380Z,40.8169
2023-03-27T07:51:14.982Z,40.8592
2023-03-27T07:52:16.738Z,40.9369
2023-03-27T07:53:32.806Z,40.8900
2023-03-27T07:54:19.945Z,40.8985
2023-03-27T07:55:21.582Z,40.8846
2023-03-27T07:56:23.276Z,40.8792
2023-03-27T07:57:25.041Z,40.8831
2023-03-27T07:58:26.857Z,41.1323
2023-03-27T07:59:28.197Z,40.9023
2023-03-27T08:00:29.980Z,40.8962
2023-03-27T08:01:31.480Z,40.8815
2023-03-27T08:02:33.188Z,40.8746
2023-03-27T08:03:34.922Z,40.8769
2023-03-27T08:04:36.584Z,40.8700
2023-03-27T08:05:38.080Z,40.8838
2023-03-27T08:06:39.751Z,40.9238
2023-03-27T08:07:41.389Z,40.9015
2023-03-27T08:08:43.092Z,40.8862
2023-03-27T08:09:44.697Z,41.0069
2023-03-27T08:10:46.361Z,40.9185
2023-03-27T08:11:48.010Z,40.9431
2023-03-27T08:12:49.668Z,40.9308
2023-03-27T08:13:51.330Z,40.9400
2023-03-27T08:14:52.968Z,40.8992
2023-03-27T08:15:54.750Z,40.8508
2023-03-27T08:17:08.648Z,40.9823
2023-03-27T08:17:57.937Z,41.0046
2023-03-27T08:18:59.640Z,40.9946
2023-03-27T08:20:01.226Z,40.9015
2023-03-27T08:21:02.957Z,40.9108
2023-03-27T08:22:04.501Z,40.9231
2023-03-27T08:23:06.191Z,40.9577
2023-03-27T08:24:07.833Z,40.9308
2023-03-27T08:25:09.502Z,40.9462
2023-03-27T08:26:11.101Z,40.9800
2023-03-27T08:27:12.798Z,41.0277
2023-03-27T08:28:14.433Z,40.8985
2023-03-27T08:29:16.138Z,41.1492
2023-03-27T08:30:17.794Z,41.0331
2023-03-27T08:31:19.487Z,41.0538
2023-03-27T08:32:21.035Z,41.0462
2023-03-27T08:33:22.739Z,41.0354
2023-03-27T08:34:24.397Z,40.9331
2023-03-27T08:35:26.026Z,40.9262
2023-03-27T08:36:27.632Z,40.9623
2023-03-27T08:37:29.265Z,40.9277
2023-03-27T08:38:30.964Z,40.9146
2023-03-27T08:39:32.630Z,40.9492
2023-03-27T08:40:34.219Z,41.0577
2023-03-27T08:41:35.882Z,41.0362
2023-03-27T08:42:37.556Z,41.0238
2023-03-27T08:43:39.142Z,41.1515
2023-03-27T08:44:40.873Z,41.1969
2023-03-27T08:45:42.470Z,41.0985
2023-03-27T08:46:44.136Z,41.0569
2023-03-27T08:48:48.556Z,40.9938
2023-03-27T08:49:50.144Z,40.9454
2023-03-27T08:50:51.817Z,41.0154
2023-03-27T08:51:53.406Z,41.1685
2023-03-27T08:52:55.059Z,41.1777
2023-03-27T08:53:56.719Z,41.1500
2023-03-27T08:54:58.502Z,41.1538
2023-03-27T08:56:00.003Z,41.2200
2023-03-27T08:57:01.759Z,41.0938
2023-03-27T08:58:03.334Z,41.1077
2023-03-27T08:59:04.992Z,41.0554
2023-03-27T09:00:06.650Z,41.0615
2023-03-27T09:01:08.301Z,41.0362
2023-03-27T09:02:09.989Z,41.0392
2023-03-27T09:03:11.721Z,41.0608
2023-03-27T09:04:13.218Z,41.0808
2023-03-27T09:05:14.931Z,41.0608
2023-03-27T09:06:16.567Z,41.0723
2023-03-27T09:07:18.188Z,41.0477
2023-03-27T09:08:19.804Z,41.0538
2023-03-27T09:09:21.461Z,41.0723
2023-03-27T09:10:23.199Z,41.0400
2023-03-27T09:11:24.804Z,41.0408
2023-03-27T09:12:26.430Z,41.0631
2023-03-27T09:13:28.027Z,41.1262
2023-03-27T09:14:29.686Z,41.1446
2023-03-27T09:15:31.384Z,41.1123
2023-03-27T09:16:33.122Z,41.0569
2023-03-27T09:17:34.683Z,41.0608
2023-03-27T09:18:36.316Z,41.0592
2023-03-27T09:19:37.947Z,41.0608
2023-03-27T09:20:39.662Z,41.1131
2023-03-27T09:21:41.229Z,41.1831
2023-03-27T09:22:42.904Z,41.1331
2023-03-27T09:23:44.523Z,41.0315
2023-03-27T09:24:46.236Z,41.0300
2023-03-27T09:25:47.926Z,41.0231
2023-03-27T09:27:01.072Z,41.0662
2023-03-27T09:27:51.132Z,41.1067
2023-03-27T09:28:52.806Z,41.1008
2023-03-27T09:30:05.960Z,41.0623
2023-03-27T09:30:56.226Z,41.0592
2023-03-27T09:31:57.744Z,41.0977
2023-03-27T09:32:59.448Z,41.1031
2023-03-27T09:34:01.001Z,41.0962
2023-03-27T09:35:02.752Z,41.0500
2023-03-27T09:36:04.460Z,41.0592
2023-03-27T09:37:06.056Z,41.0615
2023-03-27T09:38:07.640Z,41.0792
2023-03-27T09:39:09.314Z,41.0823
2023-03-27T09:40:10.954Z,41.0846
2023-03-27T09:41:12.634Z,41.0746
2023-03-27T09:42:14.238Z,41.0869
2023-03-27T09:43:15.920Z,41.1085
2023-03-27T09:44:17.596Z,41.1069
2023-03-27T09:45:19.301Z,41.1885
2023-03-27T09:46:20.933Z,41.1185
2023-03-27T09:47:22.520Z,41.1031
2023-03-27T09:48:24.185Z,41.0962
2023-03-27T09:49:25.814Z,41.1292
2023-03-27T09:50:27.945Z,41.0500
2023-03-27T09:51:29.269Z,41.0554
2023-03-27T09:52:30.711Z,41.0869
2023-03-27T09:53:32.434Z,41.1000
2023-03-27T09:54:34.058Z,41.0638
2023-03-27T09:55:35.717Z,41.0285
2023-03-27T09:56:37.392Z,41.0538
2023-03-27T09:57:39.077Z,41.0800
2023-03-27T09:58:40.678Z,41.0792
2023-03-27T09:59:42.307Z,41.0769
2023-03-27T10:00:44.031Z,41.1131
2023-03-27T10:01:45.632Z,41.1208
2023-03-27T10:02:47.297Z,41.0931
2023-03-27T10:03:49.108Z,41.1238
2023-03-27T10:04:50.548Z,41.1192
2023-03-27T10:05:52.216Z,41.1162
2023-03-27T10:06:53.852Z,41.0569
2023-03-27T10:07:55.522Z,41.1169
2023-03-27T10:08:57.165Z,41.0646
2023-03-27T10:09:58.836Z,41.0938
2023-03-27T10:11:00.485Z,41.0454
2023-03-27T10:12:02.190Z,41.0362
2023-03-27T10:13:03.767Z,41.0785
2023-03-27T10:14:05.454Z,41.1185
2023-03-27T10:15:07.112Z,41.1246
2023-03-27T10:16:08.837Z,41.0992
2023-03-27T10:17:10.450Z,41.0577
2023-03-27T10:18:12.199Z,41.0554
2023-03-27T10:19:13.855Z,41.0346
2023-03-27T10:20:15.491Z,41.0323
2023-03-27T10:21:17.100Z,41.0654
2023-03-27T10:22:18.766Z,41.0538
2023-03-27T10:23:20.359Z,41.0592
2023-03-27T10:24:22.005Z,41.0462
2023-03-27T10:25:23.678Z,41.0685
2023-03-27T10:26:25.343Z,41.0585
2023-03-27T10:27:26.976Z,41.0615
2023-03-27T10:28:28.609Z,41.0492
2023-03-27T10:29:30.262Z,41.0223
2023-03-27T10:30:31.912Z,41.0346
2023-03-27T10:31:33.588Z,40.9946
2023-03-27T10:32:35.268Z,40.9946
2023-03-27T10:33:36.885Z,41.1638
2023-03-27T10:34:38.517Z,41.0977
2023-03-27T10:35:40.179Z,40.9823
2023-03-27T10:36:41.842Z,40.9777
2023-03-27T10:37:49.773Z,41.0200
2023-03-27T10:38:45.132Z,41.0967
2023-03-27T10:39:46.756Z,41.0023
2023-03-27T10:40:48.426Z,40.9777
2023-03-27T10:41:50.067Z,41.0215
2023-03-27T10:42:51.782Z,41.0877
2023-03-27T10:43:53.360Z,41.0054
2023-03-27T10:44:55.030Z,40.9346
2023-03-27T10:45:56.764Z,41.0492
2023-03-27T10:46:58.347Z,41.1169
2023-03-27T10:48:00.038Z,41.2408
2023-03-27T10:49:01.635Z,41.3669
2023-03-27T10:50:03.267Z,41.2008
2023-03-27T10:51:04.945Z,40.9777
2023-03-27T10:52:06.560Z,41.0100
2023-03-27T10:53:08.336Z,41.1031
2023-03-27T10:54:09.902Z,41.0223
2023-03-27T10:55:11.537Z,41.0354
2023-03-27T10:56:13.176Z,41.0946
2023-03-27T10:57:14.868Z,41.1631
2023-03-27T10:58:16.481Z,41.2823
2023-03-27T10:59:21.509Z,41.1092
2023-03-27T11:00:19.763Z,41.2708
2023-03-27T11:01:21.505Z,41.2962
2023-03-27T11:02:23.115Z,41.1285
2023-03-27T11:03:24.807Z,41.2454
2023-03-27T11:04:26.378Z,41.4408
2023-03-27T11:05:28.092Z,41.3415
2023-03-27T11:06:29.698Z,41.0985
2023-03-27T11:07:31.369Z,41.1838
2023-03-27T11:08:33.062Z,41.1392
2023-03-27T11:09:34.708Z,41.1346
2023-03-27T11:10:36.320Z,41.0708
2023-03-27T11:11:38.031Z,41.0462
2023-03-27T11:12:39.608Z,41.1231
2023-03-27T11:13:41.279Z,41.0477
2023-03-27T11:14:42.917Z,41.1931
2023-03-27T11:15:44.608Z,41.1400
2023-03-27T11:16:46.242Z,41.1138
2023-03-27T11:17:47.905Z,41.1262
2023-03-27T11:18:49.573Z,41.1308
2023-03-27T11:19:51.176Z,41.2785
2023-03-27T11:20:52.789Z,41.2200
2023-03-27T11:21:54.485Z,41.1492
2023-03-27T11:22:56.138Z,41.1031
2023-03-27T11:23:57.926Z,41.0900
2023-03-27T11:24:59.429Z,41.1700
2023-03-27T11:26:01.075Z,41.3038
2023-03-27T11:27:02.754Z,41.1708
2023-03-27T11:28:04.444Z,41.1192
2023-03-27T11:29:06.059Z,41.1023
2023-03-27T11:30:07.705Z,41.1738
2023-03-27T11:31:12.112Z,41.1038
2023-03-27T11:32:10.995Z,41.2762
2023-03-27T11:33:12.608Z,41.2362
2023-03-27T11:34:14.345Z,41.4077
2023-03-27T11:35:15.923Z,41.2658
2023-03-27T11:36:17.619Z,41.2269
2023-03-27T11:37:19.217Z,41.1346
2023-03-27T11:38:20.911Z,41.2562
2023-03-27T11:39:22.626Z,41.2938
2023-03-27T11:40:24.232Z,41.2900
2023-03-27T11:41:25.847Z,41.2838
2023-03-27T11:42:27.604Z,41.2685
2023-03-27T11:43:29.135Z,41.2823
2023-03-27T11:44:30.847Z,41.1923
2023-03-27T11:45:32.452Z,41.1885
2023-03-27T11:46:34.168Z,41.2692
2023-03-27T11:47:35.759Z,41.3292
2023-03-27T11:48:37.394Z,41.1431
2023-03-27T11:49:39.141Z,41.2538
2023-03-27T11:50:40.750Z,41.1715
2023-03-27T11:51:42.403Z,41.2515
2023-03-27T11:52:43.997Z,41.1292
2023-03-27T11:53:45.684Z,41.1831
2023-03-27T11:54:47.379Z,41.1969
2023-03-27T11:55:49.008Z,41.1531
2023-03-27T11:56:50.643Z,41.2815
2023-03-27T11:57:52.278Z,41.2362
2023-03-27T11:58:53.917Z,41.1100
2023-03-27T11:59:55.616Z,41.0485
2023-03-27T12:00:57.393Z,41.2585
2023-03-27T12:01:58.936Z,41.1762
2023-03-27T12:03:00.574Z,41.1408
2023-03-27T12:04:02.320Z,41.2762
2023-03-27T12:05:03.866Z,41.3623
2023-03-27T12:06:05.556Z,41.2254
2023-03-27T12:07:09.836Z,41.2862
2023-03-27T12:08:08.790Z,41.3008
2023-03-27T12:09:10.428Z,41.3300
2023-03-27T12:10:12.140Z,41.3369
2023-03-27T12:11:13.716Z,41.0469
2023-03-27T12:12:15.391Z,41.2215
2023-03-27T12:13:17.021Z,41.0885
2023-03-27T12:14:19.140Z,41.0615
2023-03-27T12:15:20.421Z,41.1354
2023-03-27T12:16:22.092Z,41.0269
2023-03-27T12:17:23.725Z,41.2469
2023-03-27T12:18:35.277Z,41.0646
2023-03-27T12:19:29.680Z,41.0025
2023-03-27T12:20:28.745Z,41.0000
2023-03-27T12:21:30.330Z,41.0854
2023-03-27T12:22:31.921Z,41.2262
2023-03-27T12:23:33.522Z,41.2523
2023-03-27T12:24:35.196Z,41.1738
2023-03-27T12:25:36.931Z,41.2823
2023-03-27T12:26:38.626Z,41.3223